sensor_id;sensor_type;location;lat;lon;timestamp;temperature;humidity
66257;DHT22;53049;43.446;3.698;2023-06-14T00:01:38;19.70;99.90
66257;DHT22;53049;43.446;3.698;2023-06-14T00:04:03;19.70;99.90
66257;DHT22;53049;43.446;3.698;2023-06-14T00:06:31;19.70;99.90
66257;DHT22;53049;43.446;3.698;2023-06-14T00:08:59;19.70;99.90
66257;DHT22;53049;43.446;3.698;2023-06-14T00:11:24;19.70;99.90
66257;DHT22;53049;43.446;3.698;2023-06-14T00:13:52;19.70;99.90
66257;DHT22;53049;43.446;3.698;2023-06-14T00:16:17;19.70;99.90
66257;DHT22;53049;43.446;3.698;2023-06-14T00:18:45;19.70;99.90
66257;DHT22;53049;43.446;3.698;2023-06-14T00:21:11;19.70;99.90
66257;DHT22;53049;43.446;3.698;2023-06-14T00:23:37;19.70;99.90
66257;DHT22;53049;43.446;3.698;2023-06-14T00:26:03;19.70;99.90
66257;DHT22;53049;43.446;3.698;2023-06-14T00:28:29;19.70;99.90
66257;DHT22;53049;43.446;3.698;2023-06-14T00:30:55;19.70;99.90
66257;DHT22;53049;43.446;3.698;2023-06-14T00:33:20;19.60;99.90
66257;DHT22;53049;43.446;3.698;2023-06-14T00:35:46;19.60;99.90
66257;DHT22;53049;43.446;3.698;2023-06-14T00:38:12;19.60;99.90
66257;DHT22;53049;43.446;3.698;2023-06-14T00:40:38;19.60;99.90
66257;DHT22;53049;43.446;3.698;2023-06-14T00:43:04;19.50;99.90
66257;DHT22;53049;43.446;3.698;2023-06-14T00:45:29;19.50;99.90
66257;DHT22;53049;43.446;3.698;2023-06-14T00:47:57;19.50;99.90
66257;DHT22;53049;43.446;3.698;2023-06-14T00:50:23;19.50;99.90
66257;DHT22;53049;43.446;3.698;2023-06-14T00:52:49;19.50;99.90
66257;DHT22;53049;43.446;3.698;2023-06-14T00:55:16;19.50;99.90
66257;DHT22;53049;43.446;3.698;2023-06-14T00:57:42;19.50;99.90
66257;DHT22;53049;43.446;3.698;2023-06-14T01:00:08;19.50;99.90
66257;DHT22;53049;43.446;3.698;2023-06-14T01:02:38;19.50;99.90
66257;DHT22;53049;43.446;3.698;2023-06-14T01:05:06;19.50;99.90
66257;DHT22;53049;43.446;3.698;2023-06-14T01:15:51;19.40;99.90
66257;DHT22;53049;43.446;3.698;2023-06-14T01:18:17;19.40;99.90
66257;DHT22;53049;43.446;3.698;2023-06-14T01:20:45;19.30;99.90
66257;DHT22;53049;43.446;3.698;2023-06-14T01:23:12;19.30;99.90
66257;DHT22;53049;43.446;3.698;2023-06-14T01:25:38;19.30;99.90
66257;DHT22;53049;43.446;3.698;2023-06-14T01:28:05;19.20;99.90
66257;DHT22;53049;43.446;3.698;2023-06-14T01:30:37;19.20;99.90
66257;DHT22;53049;43.446;3.698;2023-06-14T01:33:04;19.20;99.90
66257;DHT22;53049;43.446;3.698;2023-06-14T01:35:30;19.20;99.90
66257;DHT22;53049;43.446;3.698;2023-06-14T01:37:56;19.20;99.90
66257;DHT22;53049;43.446;3.698;2023-06-14T01:40:22;19.10;99.90
66257;DHT22;53049;43.446;3.698;2023-06-14T01:42:50;19.20;99.90
66257;DHT22;53049;43.446;3.698;2023-06-14T01:45:16;19.10;99.90
66257;DHT22;53049;43.446;3.698;2023-06-14T01:47:44;19.10;99.90
66257;DHT22;53049;43.446;3.698;2023-06-14T01:50:10;19.10;99.90
66257;DHT22;53049;43.446;3.698;2023-06-14T01:52:37;19.10;99.90
66257;DHT22;53049;43.446;3.698;2023-06-14T01:55:05;19.10;99.90
66257;DHT22;53049;43.446;3.698;2023-06-14T01:57:31;19.00;99.90
66257;DHT22;53049;43.446;3.698;2023-06-14T01:59:56;19.00;99.90
66257;DHT22;53049;43.446;3.698;2023-06-14T02:02:22;19.00;99.90
66257;DHT22;53049;43.446;3.698;2023-06-14T02:04:47;19.00;99.90
66257;DHT22;53049;43.446;3.698;2023-06-14T02:07:13;19.00;99.90
66257;DHT22;53049;43.446;3.698;2023-06-14T02:09:40;19.00;99.90
66257;DHT22;53049;43.446;3.698;2023-06-14T02:12:07;18.90;99.90
66257;DHT22;53049;43.446;3.698;2023-06-14T02:14:32;18.90;99.90
66257;DHT22;53049;43.446;3.698;2023-06-14T02:16:59;18.90;99.90
66257;DHT22;53049;43.446;3.698;2023-06-14T02:19:26;18.90;99.90
66257;DHT22;53049;43.446;3.698;2023-06-14T02:21:52;18.80;99.90
66257;DHT22;53049;43.446;3.698;2023-06-14T02:24:18;18.80;99.90
66257;DHT22;53049;43.446;3.698;2023-06-14T02:26:43;18.90;99.90
66257;DHT22;53049;43.446;3.698;2023-06-14T02:29:09;18.80;99.90
66257;DHT22;53049;43.446;3.698;2023-06-14T02:31:38;18.80;99.90
66257;DHT22;53049;43.446;3.698;2023-06-14T02:34:04;18.80;99.90
66257;DHT22;53049;43.446;3.698;2023-06-14T02:36:29;18.80;99.90
66257;DHT22;53049;43.446;3.698;2023-06-14T02:38:56;18.90;99.90
66257;DHT22;53049;43.446;3.698;2023-06-14T02:41:23;18.80;99.90
66257;DHT22;53049;43.446;3.698;2023-06-14T02:43:49;18.90;99.90
66257;DHT22;53049;43.446;3.698;2023-06-14T02:46:15;18.90;99.90
66257;DHT22;53049;43.446;3.698;2023-06-14T02:48:41;18.90;99.90
66257;DHT22;53049;43.446;3.698;2023-06-14T02:51:06;18.90;99.90
66257;DHT22;53049;43.446;3.698;2023-06-14T02:53:33;19.00;99.90
66257;DHT22;53049;43.446;3.698;2023-06-14T02:55:59;19.00;99.90
66257;DHT22;53049;43.446;3.698;2023-06-14T02:58:26;19.00;99.90
66257;DHT22;53049;43.446;3.698;2023-06-14T03:00:52;19.00;99.90
66257;DHT22;53049;43.446;3.698;2023-06-14T03:03:20;19.00;99.90
66257;DHT22;53049;43.446;3.698;2023-06-14T03:05:48;19.00;99.90
66257;DHT22;53049;43.446;3.698;2023-06-14T03:08:15;19.10;99.90
66257;DHT22;53049;43.446;3.698;2023-06-14T03:10:48;19.10;99.90
66257;DHT22;53049;43.446;3.698;2023-06-14T03:13:15;19.10;99.90
66257;DHT22;53049;43.446;3.698;2023-06-14T03:15:42;19.10;99.90
66257;DHT22;53049;43.446;3.698;2023-06-14T03:18:08;19.10;99.90
66257;DHT22;53049;43.446;3.698;2023-06-14T03:20:40;19.10;99.90
66257;DHT22;53049;43.446;3.698;2023-06-14T03:23:07;19.10;99.90
66257;DHT22;53049;43.446;3.698;2023-06-14T03:25:32;19.00;99.90
66257;DHT22;53049;43.446;3.698;2023-06-14T03:28:01;19.00;99.90
66257;DHT22;53049;43.446;3.698;2023-06-14T03:30:30;19.10;99.90
66257;DHT22;53049;43.446;3.698;2023-06-14T03:32:55;19.00;99.90
66257;DHT22;53049;43.446;3.698;2023-06-14T03:35:22;19.00;99.90
66257;DHT22;53049;43.446;3.698;2023-06-14T03:37:48;19.00;99.90
66257;DHT22;53049;43.446;3.698;2023-06-14T03:40:15;19.00;99.90
66257;DHT22;53049;43.446;3.698;2023-06-14T03:42:42;18.90;99.90
66257;DHT22;53049;43.446;3.698;2023-06-14T03:45:07;18.90;99.90
66257;DHT22;53049;43.446;3.698;2023-06-14T03:47:34;18.80;99.90
66257;DHT22;53049;43.446;3.698;2023-06-14T03:50:00;18.90;99.90
66257;DHT22;53049;43.446;3.698;2023-06-14T03:52:26;18.80;99.90
66257;DHT22;53049;43.446;3.698;2023-06-14T03:54:52;18.80;99.90
66257;DHT22;53049;43.446;3.698;2023-06-14T03:57:18;18.80;99.90
66257;DHT22;53049;43.446;3.698;2023-06-14T03:59:44;18.80;99.90
66257;DHT22;53049;43.446;3.698;2023-06-14T04:02:10;18.80;99.90
66257;DHT22;53049;43.446;3.698;2023-06-14T04:04:36;18.80;99.90
66257;DHT22;53049;43.446;3.698;2023-06-14T04:07:02;18.70;99.90
66257;DHT22;53049;43.446;3.698;2023-06-14T04:09:29;18.80;99.90
66257;DHT22;53049;43.446;3.698;2023-06-14T04:11:55;18.80;99.90
66257;DHT22;53049;43.446;3.698;2023-06-14T04:14:21;18.80;99.90
66257;DHT22;53049;43.446;3.698;2023-06-14T04:16:48;18.90;99.90
66257;DHT22;53049;43.446;3.698;2023-06-14T04:19:14;18.80;99.90
66257;DHT22;53049;43.446;3.698;2023-06-14T04:21:40;18.80;99.90
66257;DHT22;53049;43.446;3.698;2023-06-14T04:24:06;18.90;99.90
66257;DHT22;53049;43.446;3.698;2023-06-14T04:26:32;18.90;99.90
66257;DHT22;53049;43.446;3.698;2023-06-14T04:28:59;18.90;99.90
66257;DHT22;53049;43.446;3.698;2023-06-14T04:31:31;18.90;99.90
66257;DHT22;53049;43.446;3.698;2023-06-14T04:33:59;18.90;99.90
66257;DHT22;53049;43.446;3.698;2023-06-14T04:36:25;18.90;99.90
66257;DHT22;53049;43.446;3.698;2023-06-14T04:38:53;18.90;99.90
66257;DHT22;53049;43.446;3.698;2023-06-14T04:41:21;19.00;99.90
66257;DHT22;53049;43.446;3.698;2023-06-14T04:43:48;19.00;99.90
66257;DHT22;53049;43.446;3.698;2023-06-14T04:46:15;19.00;99.90
66257;DHT22;53049;43.446;3.698;2023-06-14T04:48:41;19.10;99.90
66257;DHT22;53049;43.446;3.698;2023-06-14T04:51:12;19.00;99.90
66257;DHT22;53049;43.446;3.698;2023-06-14T04:53:38;19.10;99.90
66257;DHT22;53049;43.446;3.698;2023-06-14T04:56:04;19.10;99.90
66257;DHT22;53049;43.446;3.698;2023-06-14T04:58:30;19.10;99.90
66257;DHT22;53049;43.446;3.698;2023-06-14T05:00:56;19.10;99.90
66257;DHT22;53049;43.446;3.698;2023-06-14T05:03:22;19.10;99.90
66257;DHT22;53049;43.446;3.698;2023-06-14T05:05:49;19.20;99.90
66257;DHT22;53049;43.446;3.698;2023-06-14T05:08:16;19.20;99.90
66257;DHT22;53049;43.446;3.698;2023-06-14T05:10:41;19.20;99.90
66257;DHT22;53049;43.446;3.698;2023-06-14T05:13:07;19.20;99.90
66257;DHT22;53049;43.446;3.698;2023-06-14T05:15:33;19.30;99.90
66257;DHT22;53049;43.446;3.698;2023-06-14T05:17:59;19.30;99.90
66257;DHT22;53049;43.446;3.698;2023-06-14T05:20:25;19.30;99.90
66257;DHT22;53049;43.446;3.698;2023-06-14T05:22:53;19.30;99.90
66257;DHT22;53049;43.446;3.698;2023-06-14T05:25:19;19.30;99.90
66257;DHT22;53049;43.446;3.698;2023-06-14T05:27:46;19.40;99.90
66257;DHT22;53049;43.446;3.698;2023-06-14T05:30:13;19.40;99.90
66257;DHT22;53049;43.446;3.698;2023-06-14T05:32:39;19.50;99.90
66257;DHT22;53049;43.446;3.698;2023-06-14T05:35:05;19.60;99.90
66257;DHT22;53049;43.446;3.698;2023-06-14T05:37:31;19.70;99.90
66257;DHT22;53049;43.446;3.698;2023-06-14T05:39:57;19.70;99.90
66257;DHT22;53049;43.446;3.698;2023-06-14T05:42:22;19.70;99.90
66257;DHT22;53049;43.446;3.698;2023-06-14T05:44:48;19.80;99.90
66257;DHT22;53049;43.446;3.698;2023-06-14T05:47:14;19.80;99.90
66257;DHT22;53049;43.446;3.698;2023-06-14T05:49:39;19.80;99.90
66257;DHT22;53049;43.446;3.698;2023-06-14T05:52:06;19.80;99.90
66257;DHT22;53049;43.446;3.698;2023-06-14T05:54:31;19.80;99.90
66257;DHT22;53049;43.446;3.698;2023-06-14T05:56:57;19.80;99.90
66257;DHT22;53049;43.446;3.698;2023-06-14T05:59:27;19.80;99.90
66257;DHT22;53049;43.446;3.698;2023-06-14T06:01:53;19.90;99.90
66257;DHT22;53049;43.446;3.698;2023-06-14T06:04:19;19.80;99.90
66257;DHT22;53049;43.446;3.698;2023-06-14T06:06:45;19.80;99.90
66257;DHT22;53049;43.446;3.698;2023-06-14T06:09:12;19.90;99.90
66257;DHT22;53049;43.446;3.698;2023-06-14T06:11:37;19.80;99.90
66257;DHT22;53049;43.446;3.698;2023-06-14T06:14:03;19.80;99.90
66257;DHT22;53049;43.446;3.698;2023-06-14T06:16:28;19.80;99.90
66257;DHT22;53049;43.446;3.698;2023-06-14T06:18:54;19.80;99.90
66257;DHT22;53049;43.446;3.698;2023-06-14T06:21:20;19.80;99.90
66257;DHT22;53049;43.446;3.698;2023-06-14T06:23:45;19.80;99.90
66257;DHT22;53049;43.446;3.698;2023-06-14T06:26:11;19.90;99.90
66257;DHT22;53049;43.446;3.698;2023-06-14T06:28:36;19.90;99.90
66257;DHT22;53049;43.446;3.698;2023-06-14T06:31:02;19.90;99.90
66257;DHT22;53049;43.446;3.698;2023-06-14T06:33:28;20.00;99.90
66257;DHT22;53049;43.446;3.698;2023-06-14T06:35:54;20.00;99.90
66257;DHT22;53049;43.446;3.698;2023-06-14T06:38:19;20.10;99.90
66257;DHT22;53049;43.446;3.698;2023-06-14T06:40:45;20.10;99.90
66257;DHT22;53049;43.446;3.698;2023-06-14T06:43:11;20.10;99.90
66257;DHT22;53049;43.446;3.698;2023-06-14T06:45:42;20.10;99.90
66257;DHT22;53049;43.446;3.698;2023-06-14T06:48:08;20.20;99.90
66257;DHT22;53049;43.446;3.698;2023-06-14T06:50:36;20.30;99.90
66257;DHT22;53049;43.446;3.698;2023-06-14T06:53:01;20.50;99.90
66257;DHT22;53049;43.446;3.698;2023-06-14T06:55:27;20.50;99.90
66257;DHT22;53049;43.446;3.698;2023-06-14T06:57:54;20.70;99.90
66257;DHT22;53049;43.446;3.698;2023-06-14T07:00:21;20.70;99.90
66257;DHT22;53049;43.446;3.698;2023-06-14T07:02:47;20.80;99.90
66257;DHT22;53049;43.446;3.698;2023-06-14T07:05:13;21.00;99.90
66257;DHT22;53049;43.446;3.698;2023-06-14T07:07:39;21.00;99.90
66257;DHT22;53049;43.446;3.698;2023-06-14T07:10:05;21.00;99.90
66257;DHT22;53049;43.446;3.698;2023-06-14T07:12:31;21.20;99.90
66257;DHT22;53049;43.446;3.698;2023-06-14T07:14:59;21.40;99.90
66257;DHT22;53049;43.446;3.698;2023-06-14T07:17:25;21.50;99.90
66257;DHT22;53049;43.446;3.698;2023-06-14T07:19:51;21.90;99.90
66257;DHT22;53049;43.446;3.698;2023-06-14T07:22:16;22.60;99.90
66257;DHT22;53049;43.446;3.698;2023-06-14T07:24:43;23.20;99.90
66257;DHT22;53049;43.446;3.698;2023-06-14T07:27:08;23.90;99.90
66257;DHT22;53049;43.446;3.698;2023-06-14T07:29:34;24.60;99.90
66257;DHT22;53049;43.446;3.698;2023-06-14T07:32:00;24.90;99.90
66257;DHT22;53049;43.446;3.698;2023-06-14T07:34:26;24.80;99.90
66257;DHT22;53049;43.446;3.698;2023-06-14T07:36:52;24.60;99.90
66257;DHT22;53049;43.446;3.698;2023-06-14T07:39:19;24.40;99.90
66257;DHT22;53049;43.446;3.698;2023-06-14T07:41:45;25.00;99.90
66257;DHT22;53049;43.446;3.698;2023-06-14T07:44:10;25.80;99.90
66257;DHT22;53049;43.446;3.698;2023-06-14T07:46:38;26.10;99.90
66257;DHT22;53049;43.446;3.698;2023-06-14T07:49:03;25.70;99.90
66257;DHT22;53049;43.446;3.698;2023-06-14T07:51:29;25.70;99.90
66257;DHT22;53049;43.446;3.698;2023-06-14T07:53:55;25.70;99.90
66257;DHT22;53049;43.446;3.698;2023-06-14T07:56:21;26.80;99.90
66257;DHT22;53049;43.446;3.698;2023-06-14T07:58:51;27.80;99.90
66257;DHT22;53049;43.446;3.698;2023-06-14T08:01:16;28.40;99.90
66257;DHT22;53049;43.446;3.698;2023-06-14T08:03:42;28.80;99.90
66257;DHT22;53049;43.446;3.698;2023-06-14T08:06:07;28.70;99.90
66257;DHT22;53049;43.446;3.698;2023-06-14T08:08:33;27.80;99.90
66257;DHT22;53049;43.446;3.698;2023-06-14T08:10:59;27.00;99.90
66257;DHT22;53049;43.446;3.698;2023-06-14T08:13:25;25.90;99.90
66257;DHT22;53049;43.446;3.698;2023-06-14T08:15:50;25.40;99.90
66257;DHT22;53049;43.446;3.698;2023-06-14T08:18:16;25.10;99.90
66257;DHT22;53049;43.446;3.698;2023-06-14T08:20:42;24.90;99.90
66257;DHT22;53049;43.446;3.698;2023-06-14T08:23:07;24.80;99.90
66257;DHT22;53049;43.446;3.698;2023-06-14T08:25:34;24.90;99.90
66257;DHT22;53049;43.446;3.698;2023-06-14T08:28:00;25.00;99.90
66257;DHT22;53049;43.446;3.698;2023-06-14T08:30:26;24.90;99.90
66257;DHT22;53049;43.446;3.698;2023-06-14T08:32:52;24.80;99.90
66257;DHT22;53049;43.446;3.698;2023-06-14T08:35:18;25.10;99.90
66257;DHT22;53049;43.446;3.698;2023-06-14T08:37:44;25.10;99.90
66257;DHT22;53049;43.446;3.698;2023-06-14T08:40:21;25.70;99.90
66257;DHT22;53049;43.446;3.698;2023-06-14T08:42:52;25.90;99.90
66257;DHT22;53049;43.446;3.698;2023-06-14T08:45:19;26.00;99.90
66257;DHT22;53049;43.446;3.698;2023-06-14T08:47:46;26.10;99.90
66257;DHT22;53049;43.446;3.698;2023-06-14T08:50:18;27.00;99.90
66257;DHT22;53049;43.446;3.698;2023-06-14T08:52:45;26.90;99.90
66257;DHT22;53049;43.446;3.698;2023-06-14T08:55:16;27.40;99.90
66257;DHT22;53049;43.446;3.698;2023-06-14T08:57:44;26.80;99.90
66257;DHT22;53049;43.446;3.698;2023-06-14T09:00:12;26.90;99.90
66257;DHT22;53049;43.446;3.698;2023-06-14T09:02:39;26.90;99.90
66257;DHT22;53049;43.446;3.698;2023-06-14T09:05:11;27.60;99.90
66257;DHT22;53049;43.446;3.698;2023-06-14T09:07:39;28.10;99.90
66257;DHT22;53049;43.446;3.698;2023-06-14T09:10:11;28.40;99.90
66257;DHT22;53049;43.446;3.698;2023-06-14T09:12:36;27.40;99.90
66257;DHT22;53049;43.446;3.698;2023-06-14T09:15:04;26.90;99.90
66257;DHT22;53049;43.446;3.698;2023-06-14T09:17:41;26.90;99.90
66257;DHT22;53049;43.446;3.698;2023-06-14T09:20:08;27.40;99.90
66257;DHT22;53049;43.446;3.698;2023-06-14T09:22:36;27.90;99.90
66257;DHT22;53049;43.446;3.698;2023-06-14T09:25:02;28.30;99.90
66257;DHT22;53049;43.446;3.698;2023-06-14T09:27:31;28.50;99.90
66257;DHT22;53049;43.446;3.698;2023-06-14T09:29:57;28.00;99.90
66257;DHT22;53049;43.446;3.698;2023-06-14T09:32:23;28.10;99.90
66257;DHT22;53049;43.446;3.698;2023-06-14T09:34:49;28.10;99.90
66257;DHT22;53049;43.446;3.698;2023-06-14T09:37:31;28.30;99.90
66257;DHT22;53049;43.446;3.698;2023-06-14T09:39:58;27.90;99.90
66257;DHT22;53049;43.446;3.698;2023-06-14T09:42:24;27.40;99.90
66257;DHT22;53049;43.446;3.698;2023-06-14T09:44:54;27.30;99.90
66257;DHT22;53049;43.446;3.698;2023-06-14T09:47:21;27.40;99.90
66257;DHT22;53049;43.446;3.698;2023-06-14T09:49:48;27.40;99.90
66257;DHT22;53049;43.446;3.698;2023-06-14T09:52:16;26.90;99.90
66257;DHT22;53049;43.446;3.698;2023-06-14T09:54:43;26.90;99.90
66257;DHT22;53049;43.446;3.698;2023-06-14T09:57:10;27.90;99.90
66257;DHT22;53049;43.446;3.698;2023-06-14T09:59:41;28.20;99.90
66257;DHT22;53049;43.446;3.698;2023-06-14T10:02:13;28.30;99.90
66257;DHT22;53049;43.446;3.698;2023-06-14T10:04:43;28.00;99.90
66257;DHT22;53049;43.446;3.698;2023-06-14T10:07:14;28.50;99.90
66257;DHT22;53049;43.446;3.698;2023-06-14T10:09:43;28.70;99.90
66257;DHT22;53049;43.446;3.698;2023-06-14T10:12:14;29.30;99.90
66257;DHT22;53049;43.446;3.698;2023-06-14T10:14:49;29.60;99.90
66257;DHT22;53049;43.446;3.698;2023-06-14T10:17:56;30.10;99.90
66257;DHT22;53049;43.446;3.698;2023-06-14T10:20:46;28.80;99.90
66257;DHT22;53049;43.446;3.698;2023-06-14T10:23:23;28.90;99.90
66257;DHT22;53049;43.446;3.698;2023-06-14T10:25:50;27.90;99.90
66257;DHT22;53049;43.446;3.698;2023-06-14T10:28:20;27.50;99.90
66257;DHT22;53049;43.446;3.698;2023-06-14T10:33:31;26.70;99.90
66257;DHT22;53049;43.446;3.698;2023-06-14T10:39:07;26.70;99.90
66257;DHT22;53049;43.446;3.698;2023-06-14T10:41:40;26.70;99.90
66257;DHT22;53049;43.446;3.698;2023-06-14T10:46:38;26.30;99.90
66257;DHT22;53049;43.446;3.698;2023-06-14T10:49:03;26.40;99.90
66257;DHT22;53049;43.446;3.698;2023-06-14T10:51:38;26.60;99.90
66257;DHT22;53049;43.446;3.698;2023-06-14T10:54:15;26.70;99.90
66257;DHT22;53049;43.446;3.698;2023-06-14T10:56:48;26.80;99.90
66257;DHT22;53049;43.446;3.698;2023-06-14T10:59:14;26.90;99.90
66257;DHT22;53049;43.446;3.698;2023-06-14T11:04:34;26.60;99.90
66257;DHT22;53049;43.446;3.698;2023-06-14T11:10:10;26.70;99.90
66257;DHT22;53049;43.446;3.698;2023-06-14T11:12:39;26.90;99.90
66257;DHT22;53049;43.446;3.698;2023-06-14T11:15:08;27.10;99.90
66257;DHT22;53049;43.446;3.698;2023-06-14T11:17:36;27.10;99.90
66257;DHT22;53049;43.446;3.698;2023-06-14T11:20:12;27.10;99.90
66257;DHT22;53049;43.446;3.698;2023-06-14T11:22:42;27.20;99.90
66257;DHT22;53049;43.446;3.698;2023-06-14T11:25:14;27.40;99.90
66257;DHT22;53049;43.446;3.698;2023-06-14T11:27:43;27.60;99.90
66257;DHT22;53049;43.446;3.698;2023-06-14T11:30:09;27.70;99.90
66257;DHT22;53049;43.446;3.698;2023-06-14T11:32:36;27.80;99.90
66257;DHT22;53049;43.446;3.698;2023-06-14T11:35:03;27.80;99.90
66257;DHT22;53049;43.446;3.698;2023-06-14T11:37:31;27.90;99.90
66257;DHT22;53049;43.446;3.698;2023-06-14T11:39:59;27.90;99.90
66257;DHT22;53049;43.446;3.698;2023-06-14T11:42:26;27.90;99.90
66257;DHT22;53049;43.446;3.698;2023-06-14T11:44:53;27.90;99.90
66257;DHT22;53049;43.446;3.698;2023-06-14T11:47:19;27.90;99.90
66257;DHT22;53049;43.446;3.698;2023-06-14T11:49:46;27.80;99.90
66257;DHT22;53049;43.446;3.698;2023-06-14T11:52:12;27.80;99.90
66257;DHT22;53049;43.446;3.698;2023-06-14T11:54:38;27.90;99.90
66257;DHT22;53049;43.446;3.698;2023-06-14T11:57:06;27.90;99.90
66257;DHT22;53049;43.446;3.698;2023-06-14T11:59:37;27.90;99.90
66257;DHT22;53049;43.446;3.698;2023-06-14T12:02:03;27.70;99.90
66257;DHT22;53049;43.446;3.698;2023-06-14T12:04:29;27.80;99.90
66257;DHT22;53049;43.446;3.698;2023-06-14T12:06:56;27.80;99.90
66257;DHT22;53049;43.446;3.698;2023-06-14T12:09:23;27.90;99.90
66257;DHT22;53049;43.446;3.698;2023-06-14T12:11:59;27.90;99.90
66257;DHT22;53049;43.446;3.698;2023-06-14T12:14:32;27.90;99.90
66257;DHT22;53049;43.446;3.698;2023-06-14T12:17:07;27.80;99.90
66257;DHT22;53049;43.446;3.698;2023-06-14T12:19:33;27.50;99.90
66257;DHT22;53049;43.446;3.698;2023-06-14T12:22:06;27.20;99.90
66257;DHT22;53049;43.446;3.698;2023-06-14T12:24:34;27.00;99.90
66257;DHT22;53049;43.446;3.698;2023-06-14T12:27:00;26.80;99.90
66257;DHT22;53049;43.446;3.698;2023-06-14T12:29:28;26.70;99.90
66257;DHT22;53049;43.446;3.698;2023-06-14T12:31:54;26.70;99.90
66257;DHT22;53049;43.446;3.698;2023-06-14T12:34:25;26.80;99.90
66257;DHT22;53049;43.446;3.698;2023-06-14T12:36:52;27.00;99.90
66257;DHT22;53049;43.446;3.698;2023-06-14T12:39:19;27.00;99.90
66257;DHT22;53049;43.446;3.698;2023-06-14T12:41:45;26.90;99.90
66257;DHT22;53049;43.446;3.698;2023-06-14T12:44:11;26.70;99.90
66257;DHT22;53049;43.446;3.698;2023-06-14T12:46:38;26.60;99.90
66257;DHT22;53049;43.446;3.698;2023-06-14T12:49:05;26.60;99.90
66257;DHT22;53049;43.446;3.698;2023-06-14T12:51:32;26.60;99.90
66257;DHT22;53049;43.446;3.698;2023-06-14T12:53:58;26.60;99.90
66257;DHT22;53049;43.446;3.698;2023-06-14T12:56:23;26.50;99.90
66257;DHT22;53049;43.446;3.698;2023-06-14T12:58:49;26.20;99.90
66257;DHT22;53049;43.446;3.698;2023-06-14T13:01:15;25.90;99.90
66257;DHT22;53049;43.446;3.698;2023-06-14T13:03:40;25.70;99.90
66257;DHT22;53049;43.446;3.698;2023-06-14T13:06:06;25.60;99.90
66257;DHT22;53049;43.446;3.698;2023-06-14T13:08:31;25.50;99.90
66257;DHT22;53049;43.446;3.698;2023-06-14T13:10:57;25.30;99.90
66257;DHT22;53049;43.446;3.698;2023-06-14T13:13:23;25.20;99.90
66257;DHT22;53049;43.446;3.698;2023-06-14T13:15:49;25.10;99.90
66257;DHT22;53049;43.446;3.698;2023-06-14T13:18:15;25.00;99.90
66257;DHT22;53049;43.446;3.698;2023-06-14T13:20:41;25.00;99.90
66257;DHT22;53049;43.446;3.698;2023-06-14T13:23:07;24.80;99.90
66257;DHT22;53049;43.446;3.698;2023-06-14T13:25:35;24.80;99.90
66257;DHT22;53049;43.446;3.698;2023-06-14T13:28:01;24.80;99.90
66257;DHT22;53049;43.446;3.698;2023-06-14T13:30:27;24.70;99.90
66257;DHT22;53049;43.446;3.698;2023-06-14T13:32:52;24.70;99.90
66257;DHT22;53049;43.446;3.698;2023-06-14T13:35:19;24.50;99.90
66257;DHT22;53049;43.446;3.698;2023-06-14T13:37:45;24.30;99.90
66257;DHT22;53049;43.446;3.698;2023-06-14T13:40:11;24.00;99.90
66257;DHT22;53049;43.446;3.698;2023-06-14T13:42:37;23.90;99.90
66257;DHT22;53049;43.446;3.698;2023-06-14T13:45:03;23.70;99.90
66257;DHT22;53049;43.446;3.698;2023-06-14T13:47:30;23.70;99.90
66257;DHT22;53049;43.446;3.698;2023-06-14T13:49:56;23.70;99.90
66257;DHT22;53049;43.446;3.698;2023-06-14T13:52:22;23.60;99.90
66257;DHT22;53049;43.446;3.698;2023-06-14T13:54:47;23.60;99.90
66257;DHT22;53049;43.446;3.698;2023-06-14T13:57:13;23.50;99.90
66257;DHT22;53049;43.446;3.698;2023-06-14T13:59:40;23.50;99.90
66257;DHT22;53049;43.446;3.698;2023-06-14T14:02:07;23.50;99.90
66257;DHT22;53049;43.446;3.698;2023-06-14T14:04:33;23.60;99.90
66257;DHT22;53049;43.446;3.698;2023-06-14T14:07:01;23.70;99.90
66257;DHT22;53049;43.446;3.698;2023-06-14T14:09:27;23.70;99.90
66257;DHT22;53049;43.446;3.698;2023-06-14T14:11:52;23.70;99.90
66257;DHT22;53049;43.446;3.698;2023-06-14T14:14:18;23.70;99.90
66257;DHT22;53049;43.446;3.698;2023-06-14T14:16:44;23.70;99.90
66257;DHT22;53049;43.446;3.698;2023-06-14T14:19:09;23.70;99.90
66257;DHT22;53049;43.446;3.698;2023-06-14T14:21:35;23.70;99.90
66257;DHT22;53049;43.446;3.698;2023-06-14T14:24:01;23.60;99.90
66257;DHT22;53049;43.446;3.698;2023-06-14T14:26:27;23.50;99.90
66257;DHT22;53049;43.446;3.698;2023-06-14T14:28:53;23.60;99.90
66257;DHT22;53049;43.446;3.698;2023-06-14T14:31:19;23.80;99.90
66257;DHT22;53049;43.446;3.698;2023-06-14T14:33:44;23.90;99.90
66257;DHT22;53049;43.446;3.698;2023-06-14T14:36:10;24.20;99.90
66257;DHT22;53049;43.446;3.698;2023-06-14T14:38:36;24.30;99.90
66257;DHT22;53049;43.446;3.698;2023-06-14T14:41:01;24.40;99.90
66257;DHT22;53049;43.446;3.698;2023-06-14T14:43:27;24.60;99.90
66257;DHT22;53049;43.446;3.698;2023-06-14T14:45:56;24.90;99.90
66257;DHT22;53049;43.446;3.698;2023-06-14T14:48:22;25.20;99.90
66257;DHT22;53049;43.446;3.698;2023-06-14T14:50:47;25.50;99.90
66257;DHT22;53049;43.446;3.698;2023-06-14T14:53:13;25.40;99.90
66257;DHT22;53049;43.446;3.698;2023-06-14T14:55:42;25.50;99.90
66257;DHT22;53049;43.446;3.698;2023-06-14T14:58:08;25.40;99.90
66257;DHT22;53049;43.446;3.698;2023-06-14T15:00:34;25.40;99.90
66257;DHT22;53049;43.446;3.698;2023-06-14T15:03:00;25.60;99.90
66257;DHT22;53049;43.446;3.698;2023-06-14T15:05:25;26.10;99.90
66257;DHT22;53049;43.446;3.698;2023-06-14T15:07:51;26.30;99.90
66257;DHT22;53049;43.446;3.698;2023-06-14T15:10:17;26.30;99.90
66257;DHT22;53049;43.446;3.698;2023-06-14T15:12:42;26.60;99.90
66257;DHT22;53049;43.446;3.698;2023-06-14T15:15:08;26.70;99.90
66257;DHT22;53049;43.446;3.698;2023-06-14T15:17:35;26.90;99.90
66257;DHT22;53049;43.446;3.698;2023-06-14T15:20:00;27.10;99.90
66257;DHT22;53049;43.446;3.698;2023-06-14T15:22:26;27.20;99.90
66257;DHT22;53049;43.446;3.698;2023-06-14T15:24:52;27.10;99.90
66257;DHT22;53049;43.446;3.698;2023-06-14T15:27:18;27.10;99.90
66257;DHT22;53049;43.446;3.698;2023-06-14T15:29:44;27.10;99.90
66257;DHT22;53049;43.446;3.698;2023-06-14T15:32:10;27.10;99.90
66257;DHT22;53049;43.446;3.698;2023-06-14T15:34:36;27.30;99.90
66257;DHT22;53049;43.446;3.698;2023-06-14T15:37:05;27.40;99.90
66257;DHT22;53049;43.446;3.698;2023-06-14T15:39:31;27.50;99.90
66257;DHT22;53049;43.446;3.698;2023-06-14T15:41:57;27.50;99.90
66257;DHT22;53049;43.446;3.698;2023-06-14T15:44:23;27.50;99.90
66257;DHT22;53049;43.446;3.698;2023-06-14T15:46:49;27.60;99.90
66257;DHT22;53049;43.446;3.698;2023-06-14T15:49:15;27.50;99.90
66257;DHT22;53049;43.446;3.698;2023-06-14T15:51:41;27.60;99.90